createdAt,value
2018-09-09T00:01:53.843Z,80.58
2018-09-09T00:04:24.425Z,80.33
2018-09-09T00:06:53.025Z,80.34
2018-09-09T00:09:26.789Z,81.02
2018-09-09T00:11:55.743Z,81.00
2018-09-09T00:14:24.944Z,80.44
2018-09-09T00:16:53.555Z,79.98
2018-09-09T00:19:23.195Z,79.99
2018-09-09T00:21:51.790Z,79.86
2018-09-09T00:24:20.395Z,79.87
2018-09-09T00:26:49.002Z,79.09
2018-09-09T00:29:17.613Z,79.62
2018-09-09T00:31:46.220Z,79.33
2018-09-09T00:34:14.877Z,79.58
2018-09-09T00:36:43.542Z,80.05
2018-09-09T00:39:12.146Z,79.75
2018-09-09T00:41:40.724Z,79.95
2018-09-09T00:44:09.341Z,80.23
2018-09-09T00:46:37.949Z,81.27
2018-09-09T00:49:11.818Z,81.48
2018-09-09T00:51:45.585Z,81.25
2018-09-09T00:54:14.232Z,81.22
2018-09-09T00:56:42.849Z,81.49
2018-09-09T00:59:11.478Z,82.44
2018-09-09T01:01:40.039Z,82.19
2018-09-09T01:04:08.640Z,83.28
2018-09-09T01:06:37.222Z,82.98
2018-09-09T01:09:08.002Z,82.90
2018-09-09T01:11:36.605Z,83.61
2018-09-09T01:14:05.520Z,84.02
2018-09-09T01:16:34.213Z,83.66
2018-09-09T01:19:02.824Z,84.20
2018-09-09T01:21:31.465Z,84.65
2018-09-09T01:24:00.216Z,84.69
2018-09-09T01:26:29.701Z,84.22
2018-09-09T01:28:58.727Z,84.39
2018-09-09T01:31:27.390Z,84.39
2018-09-09T01:33:56.131Z,83.63
2018-09-09T01:36:24.699Z,84.44
2018-09-09T01:38:53.337Z,84.69
2018-09-09T01:41:21.958Z,85.57
2018-09-09T01:43:50.577Z,85.59
2018-09-09T01:46:19.225Z,85.56
2018-09-09T01:48:47.818Z,85.63
2018-09-09T01:51:16.393Z,85.78
2018-09-09T01:53:45.013Z,86.23
2018-09-09T01:56:13.628Z,86.66
2018-09-09T01:58:42.266Z,86.41
2018-09-09T02:01:10.900Z,87.43
2018-09-09T02:03:39.537Z,87.85
2018-09-09T02:06:08.213Z,87.82
2018-09-09T02:08:36.847Z,87.82
2018-09-09T02:11:05.487Z,88.03
2018-09-09T02:13:34.751Z,88.68
2018-09-09T02:16:03.394Z,88.14
2018-09-09T02:18:32.146Z,88.07
2018-09-09T02:21:00.724Z,88.56
2018-09-09T02:23:29.318Z,88.27
2018-09-09T02:25:57.988Z,88.99
2018-09-09T02:28:26.560Z,89.46
2018-09-09T02:30:55.148Z,89.44
2018-09-09T02:33:23.906Z,89.66
2018-09-09T02:35:52.513Z,89.88
2018-09-09T02:38:21.176Z,90.38
2018-09-09T02:40:49.797Z,90.55
2018-09-09T02:43:18.403Z,90.13
2018-09-09T02:45:47.073Z,89.76
2018-09-09T02:48:15.686Z,89.03
2018-09-09T02:50:44.293Z,87.63
2018-09-09T02:53:12.866Z,88.11
2018-09-09T02:55:44.469Z,87.66
2018-09-09T02:58:14.729Z,88.48
2018-09-09T03:00:43.345Z,88.73
2018-09-09T03:03:11.930Z,88.58
2018-09-09T03:05:40.813Z,89.00
2018-09-09T03:08:09.570Z,90.04
2018-09-09T03:10:39.815Z,90.49
2018-09-09T03:13:08.418Z,90.51
2018-09-09T03:15:37.174Z,89.95
2018-09-09T03:18:05.807Z,89.62
2018-09-09T03:20:34.461Z,89.43
2018-09-09T03:23:03.085Z,89.76
2018-09-09T03:25:31.672Z,89.47
2018-09-09T03:28:00.305Z,89.49
2018-09-09T03:30:28.906Z,90.31
2018-09-09T03:32:57.504Z,90.28
2018-09-09T03:35:26.104Z,90.19
2018-09-09T03:37:54.677Z,89.79
2018-09-09T03:40:23.310Z,90.53
2018-09-09T03:42:51.906Z,90.58
2018-09-09T03:45:20.541Z,91.33
2018-09-09T03:47:49.183Z,91.83
2018-09-09T03:50:17.773Z,92.30
2018-09-09T03:52:46.490Z,92.11
2018-09-09T03:55:15.102Z,92.29
2018-09-09T03:57:43.726Z,92.55
2018-09-09T04:00:12.330Z,92.13
2018-09-09T04:02:40.978Z,92.29
2018-09-09T04:05:09.581Z,92.06
2018-09-09T04:07:38.270Z,93.01
2018-09-09T04:10:07.112Z,93.21
2018-09-09T04:12:35.670Z,93.62
2018-09-09T04:15:04.313Z,93.77
2018-09-09T04:17:32.929Z,93.86
2018-09-09T04:20:01.527Z,93.90
2018-09-09T04:22:30.143Z,93.87
2018-09-09T04:24:58.822Z,93.88
2018-09-09T04:27:27.417Z,94.28
2018-09-09T04:29:56.065Z,94.15
2018-09-09T04:32:24.659Z,93.92
2018-09-09T04:34:53.366Z,93.76
2018-09-09T04:37:21.994Z,93.44
2018-09-09T04:39:50.606Z,93.48
2018-09-09T04:42:19.299Z,93.77
2018-09-09T04:44:47.907Z,94.22
2018-09-09T04:47:16.531Z,93.62
2018-09-09T04:49:46.098Z,93.82
2018-09-09T04:52:14.723Z,93.14
2018-09-09T04:54:43.325Z,92.77
2018-09-09T04:57:11.934Z,93.33
2018-09-09T04:59:40.586Z,93.16
2018-09-09T05:02:09.191Z,92.52
2018-09-09T05:04:37.840Z,92.04
2018-09-09T05:07:06.441Z,91.60
2018-09-09T05:09:35.059Z,91.57
2018-09-09T05:12:03.689Z,90.78
2018-09-09T05:14:32.357Z,90.51
2018-09-09T05:17:00.997Z,89.66
2018-09-09T05:19:29.614Z,89.05
2018-09-09T05:21:58.227Z,87.84
2018-09-09T05:24:26.827Z,87.37
2018-09-09T05:26:55.481Z,87.06
2018-09-09T05:29:24.087Z,87.21
2018-09-09T05:31:52.695Z,86.44
2018-09-09T05:34:21.350Z,86.68
2018-09-09T05:36:50.589Z,86.04
2018-09-09T05:39:19.266Z,85.04
2018-09-09T05:41:48.630Z,85.11
2018-09-09T05:44:17.226Z,85.54
2018-09-09T05:46:45.796Z,85.03
2018-09-09T05:49:14.390Z,83.74
2018-09-09T05:51:42.996Z,83.36
2018-09-09T05:54:11.615Z,82.02
2018-09-09T05:56:40.235Z,82.54
2018-09-09T05:59:08.878Z,80.91
2018-09-09T06:01:37.485Z,81.42
2018-09-09T06:04:06.130Z,80.12
2018-09-09T06:06:34.760Z,80.05
2018-09-09T06:09:03.619Z,79.83
2018-09-09T06:11:32.205Z,79.97
2018-09-09T06:14:00.840Z,78.94
2018-09-09T06:16:29.450Z,78.66
2018-09-09T06:18:58.121Z,78.73
2018-09-09T06:21:26.764Z,78.54
2018-09-09T06:23:55.359Z,77.50
2018-09-09T06:26:23.969Z,77.30
2018-09-09T06:28:53.815Z,76.33
2018-09-09T06:31:22.402Z,76.34
2018-09-09T06:33:51.096Z,75.37
2018-09-09T06:36:19.680Z,74.95
2018-09-09T06:38:48.299Z,74.49
2018-09-09T06:41:16.916Z,73.25
2018-09-09T06:43:45.494Z,72.39
2018-09-09T06:46:14.129Z,71.39
2018-09-09T06:48:42.769Z,71.34
2018-09-09T06:51:11.448Z,70.87
2018-09-09T06:53:40.018Z,69.76
2018-09-09T06:56:08.670Z,68.14
2018-09-09T06:58:37.483Z,67.32
2018-09-09T07:01:06.250Z,66.89
2018-09-09T07:03:35.454Z,66.77
2018-09-09T07:06:04.280Z,66.23
2018-09-09T07:08:32.894Z,65.61
2018-09-09T07:11:01.701Z,64.79
2018-09-09T07:13:30.177Z,65.03
2018-09-09T07:15:58.808Z,64.50
2018-09-09T07:18:27.424Z,64.81
2018-09-09T07:20:56.329Z,64.53
2018-09-09T07:23:25.214Z,65.07
2018-09-09T07:25:53.823Z,64.30
2018-09-09T07:28:22.458Z,63.37
2018-09-09T07:30:51.042Z,63.59
2018-09-09T07:33:19.727Z,64.50
2018-09-09T07:35:48.464Z,64.02
2018-09-09T07:38:17.076Z,64.23
2018-09-09T07:40:45.761Z,63.73
2018-09-09T07:43:14.415Z,63.34
2018-09-09T07:45:43.052Z,63.04
2018-09-09T07:48:11.677Z,63.53
2018-09-09T07:50:40.419Z,62.59
2018-09-09T07:53:09.038Z,62.46
2018-09-09T07:55:37.685Z,62.66
2018-09-09T07:58:06.886Z,62.23
2018-09-09T08:00:35.622Z,62.19
2018-09-09T08:03:04.345Z,62.04
2018-09-09T08:05:33.067Z,62.04
2018-09-09T08:08:02.835Z,61.37
2018-09-09T08:10:31.422Z,61.28
2018-09-09T08:13:00.220Z,61.66
2018-09-09T08:15:28.857Z,61.57
2018-09-09T08:17:57.513Z,61.29
2018-09-09T08:20:26.570Z,61.33
2018-09-09T08:22:55.754Z,60.80
2018-09-09T08:25:24.775Z,61.23
2018-09-09T08:27:53.807Z,60.87
2018-09-09T08:30:22.442Z,60.36
2018-09-09T08:32:51.344Z,60.52
2018-09-09T08:35:19.977Z,59.44
2018-09-09T08:37:48.603Z,59.54
2018-09-09T08:40:17.232Z,58.98
2018-09-09T08:42:45.897Z,59.33
2018-09-09T08:45:14.558Z,58.90
2018-09-09T08:47:43.347Z,58.47
2018-09-09T08:50:11.958Z,58.67
2018-09-09T08:52:40.591Z,58.10
2018-09-09T08:55:09.225Z,58.78
2018-09-09T08:57:37.907Z,58.44
2018-09-09T09:00:07.606Z,58.82
2018-09-09T09:02:36.250Z,58.21
2018-09-09T09:05:06.046Z,58.31
2018-09-09T09:07:34.787Z,57.68
2018-09-09T09:10:03.362Z,57.27
2018-09-09T09:12:31.985Z,58.17
2018-09-09T09:15:00.636Z,57.61
2018-09-09T09:17:29.261Z,58.18
2018-09-09T09:19:57.910Z,57.51
2018-09-09T09:22:33.307Z,55.83
2018-09-09T09:25:01.954Z,55.67
2018-09-09T09:27:30.509Z,55.34
2018-09-09T09:29:59.540Z,55.08
2018-09-09T09:32:28.191Z,54.86
2018-09-09T09:34:57.103Z,54.63
2018-09-09T09:37:26.477Z,54.50
2018-09-09T09:39:55.921Z,54.96
2018-09-09T09:42:25.243Z,53.94
2018-09-09T09:44:53.929Z,52.68
2018-09-09T09:47:22.557Z,52.13
2018-09-09T09:49:51.163Z,51.77
2018-09-09T09:52:19.997Z,51.19
2018-09-09T09:54:48.619Z,51.61
2018-09-09T09:57:17.239Z,51.54
2018-09-09T09:59:45.897Z,51.99
2018-09-09T10:02:14.626Z,50.54
2018-09-09T10:04:43.268Z,50.11
2018-09-09T10:07:12.760Z,49.96
2018-09-09T10:09:41.380Z,48.95
2018-09-09T10:12:10.706Z,47.14
2018-09-09T10:14:39.320Z,46.17
2018-09-09T10:17:08.001Z,45.03
2018-09-09T10:19:36.766Z,45.44
2018-09-09T10:22:05.419Z,44.50
2018-09-09T10:24:34.066Z,40.34
2018-09-09T10:27:02.705Z,40.86
2018-09-09T10:29:31.382Z,39.96
2018-09-09T10:32:00.003Z,39.91
2018-09-09T10:34:28.615Z,41.07
2018-09-09T10:36:57.708Z,40.75
2018-09-09T10:39:26.319Z,40.83
2018-09-09T10:41:54.926Z,42.12
2018-09-09T10:44:23.514Z,42.62
2018-09-09T10:46:52.211Z,42.55
2018-09-09T10:49:21.985Z,42.95
2018-09-09T10:51:50.654Z,42.09
2018-09-09T10:54:19.307Z,42.16
2018-09-09T10:56:47.939Z,42.89
2018-09-09T10:59:17.709Z,40.70
2018-09-09T11:01:47.038Z,41.86
2018-09-09T11:04:16.612Z,40.96
2018-09-09T11:06:45.484Z,41.00
2018-09-09T11:09:14.465Z,40.77
2018-09-09T11:11:43.274Z,39.98
2018-09-09T11:14:12.103Z,40.08
2018-09-09T11:16:41.212Z,40.23
2018-09-09T11:19:09.923Z,39.87
2018-09-09T11:21:38.710Z,39.79
2018-09-09T11:24:07.584Z,39.54
2018-09-09T11:26:36.355Z,39.68
2018-09-09T11:29:04.977Z,40.18
2018-09-09T11:31:33.685Z,39.84
2018-09-09T11:34:02.397Z,39.90
2018-09-09T11:36:31.058Z,39.44
2018-09-09T11:38:59.656Z,39.88
2018-09-09T11:41:28.327Z,39.67
2018-09-09T11:43:57.675Z,39.21
2018-09-09T11:46:26.315Z,39.40
2018-09-09T11:48:55.000Z,39.34
2018-09-09T11:51:23.625Z,38.56
2018-09-09T11:53:52.238Z,39.25
2018-09-09T11:56:21.587Z,38.19
2018-09-09T11:58:50.223Z,37.78
2018-09-09T12:01:19.102Z,37.16
2018-09-09T12:03:47.743Z,36.83
2018-09-09T12:06:16.367Z,37.54
2018-09-09T12:08:44.978Z,38.56
2018-09-09T12:11:13.590Z,38.48
2018-09-09T12:13:42.239Z,37.61
2018-09-09T12:16:10.869Z,36.72
2018-09-09T12:18:39.590Z,37.15
2018-09-09T12:21:08.342Z,36.66
2018-09-09T12:23:37.037Z,36.05
2018-09-09T12:26:05.609Z,35.83
2018-09-09T12:28:34.262Z,36.31
2018-09-09T12:31:02.832Z,35.91
2018-09-09T12:33:31.465Z,36.63
2018-09-09T12:36:00.098Z,36.37
2018-09-09T12:38:28.724Z,36.77
2018-09-09T12:40:57.370Z,35.85
2018-09-09T12:43:31.153Z,36.16
2018-09-09T12:46:04.881Z,35.55
2018-09-09T12:48:38.655Z,35.71
2018-09-09T12:51:07.282Z,35.28
2018-09-09T12:53:35.902Z,35.71
2018-09-09T12:56:04.563Z,34.69
2018-09-09T12:58:33.256Z,34.16
2018-09-09T13:01:01.937Z,33.90
2018-09-09T13:03:30.545Z,34.13
2018-09-09T13:05:59.182Z,33.81
2018-09-09T13:08:27.805Z,33.74
2018-09-09T13:10:56.595Z,33.64
2018-09-09T13:13:26.296Z,32.45
2018-09-09T13:15:54.965Z,32.72
2018-09-09T13:18:23.590Z,32.33
2018-09-09T13:20:52.202Z,32.09
2018-09-09T13:23:20.836Z,31.94
2018-09-09T13:25:49.514Z,31.73
2018-09-09T13:28:18.158Z,31.24
2018-09-09T13:30:46.808Z,30.96
2018-09-09T13:33:15.475Z,30.05
2018-09-09T13:35:44.094Z,30.39
2018-09-09T13:38:12.770Z,30.31
2018-09-09T13:40:41.433Z,30.76
2018-09-09T13:43:10.112Z,30.45
2018-09-09T13:45:38.757Z,31.15
2018-09-09T13:48:08.152Z,30.78
2018-09-09T13:50:36.814Z,30.87
2018-09-09T13:53:05.602Z,29.83
2018-09-09T13:55:34.373Z,30.69
2018-09-09T13:58:03.004Z,30.76
2018-09-09T14:00:31.659Z,31.97
2018-09-09T14:03:00.290Z,31.48
2018-09-09T14:05:29.259Z,30.16
2018-09-09T14:07:57.878Z,29.21
2018-09-09T14:10:26.501Z,27.53
2018-09-09T14:12:55.107Z,26.58
2018-09-09T14:15:23.806Z,25.98
2018-09-09T14:17:52.416Z,27.71
2018-09-09T14:20:21.033Z,27.36
2018-09-09T14:22:49.625Z,27.17
2018-09-09T14:25:18.254Z,27.72
2018-09-09T14:27:46.911Z,26.03
2018-09-09T14:30:15.531Z,24.51
2018-09-09T14:32:44.158Z,23.78
2018-09-09T14:35:12.763Z,23.35
2018-09-09T14:37:41.391Z,22.96
2018-09-09T14:40:10.205Z,22.01
2018-09-09T14:42:38.809Z,21.65
2018-09-09T14:45:07.509Z,22.08
2018-09-09T14:47:42.628Z,22.42
2018-09-09T14:50:11.269Z,21.69
2018-09-09T14:52:40.298Z,20.85
2018-09-09T14:55:08.940Z,20.44
2018-09-09T14:57:37.653Z,20.09
2018-09-09T15:00:06.336Z,20.25
2018-09-09T15:02:36.118Z,20.01
2018-09-09T15:05:04.758Z,19.90
2018-09-09T15:07:33.954Z,20.58
2018-09-09T15:10:02.638Z,19.58
2018-09-09T15:12:31.226Z,19.21
2018-09-09T15:14:59.850Z,18.99
2018-09-09T15:17:28.496Z,17.70
2018-09-09T15:19:58.180Z,18.69
2018-09-09T15:22:26.792Z,18.63
2018-09-09T15:24:55.454Z,19.70
2018-09-09T15:27:24.089Z,20.29
2018-09-09T15:29:52.689Z,20.53
2018-09-09T15:32:21.277Z,19.91
2018-09-09T15:34:49.946Z,19.29
2018-09-09T15:37:18.567Z,19.35
2018-09-09T15:39:47.194Z,19.00
2018-09-09T15:42:15.793Z,19.07
2018-09-09T15:44:44.433Z,19.97
2018-09-09T15:47:13.053Z,21.09
2018-09-09T15:49:41.650Z,20.63
2018-09-09T15:52:10.359Z,20.85
2018-09-09T15:54:39.894Z,21.62
2018-09-09T15:57:08.533Z,23.55
2018-09-09T15:59:37.952Z,25.11
2018-09-09T16:02:06.758Z,27.58
2018-09-09T16:04:35.584Z,29.23
2018-09-09T16:07:04.259Z,30.69
2018-09-09T16:09:32.998Z,32.13
2018-09-09T16:12:01.698Z,32.59
2018-09-09T16:14:30.350Z,33.87
2018-09-09T16:16:59.075Z,34.79
2018-09-09T16:19:27.720Z,36.56
2018-09-09T16:21:56.400Z,37.06
2018-09-09T16:24:25.088Z,38.02
2018-09-09T16:26:53.690Z,38.65
2018-09-09T16:29:22.325Z,38.92
2018-09-09T16:31:50.960Z,39.43
2018-09-09T16:34:19.613Z,39.72
2018-09-09T16:36:48.282Z,40.17
2018-09-09T16:39:16.945Z,40.50
2018-09-09T16:41:45.608Z,40.32
2018-09-09T16:44:14.359Z,40.69
2018-09-09T16:46:44.016Z,41.01
2018-09-09T16:49:12.637Z,40.41
2018-09-09T16:51:41.282Z,40.42
2018-09-09T16:54:09.979Z,40.40
2018-09-09T16:56:38.642Z,39.99
2018-09-09T16:59:07.316Z,41.19
2018-09-09T17:01:35.973Z,41.49
2018-09-09T17:04:04.613Z,41.49
2018-09-09T17:06:33.222Z,42.10
2018-09-09T17:09:01.872Z,42.53
2018-09-09T17:11:30.510Z,43.03
2018-09-09T17:13:59.113Z,43.20
2018-09-09T17:16:27.806Z,43.48
2018-09-09T17:18:56.397Z,44.68
2018-09-09T17:21:24.994Z,45.14
2018-09-09T17:23:53.584Z,45.32
2018-09-09T17:26:22.212Z,44.88
2018-09-09T17:28:50.870Z,45.16
2018-09-09T17:31:19.490Z,45.54
2018-09-09T17:33:48.598Z,46.00
2018-09-09T17:36:17.218Z,46.76
2018-09-09T17:38:46.253Z,47.20
2018-09-09T17:41:14.910Z,47.54
2018-09-09T17:43:43.579Z,48.10
2018-09-09T17:46:12.297Z,48.58
2018-09-09T17:48:40.979Z,48.38
2018-09-09T17:51:09.747Z,48.72
2018-09-09T17:53:38.489Z,49.37
2018-09-09T17:56:07.151Z,50.32
2018-09-09T17:58:35.756Z,50.32
2018-09-09T18:01:04.457Z,51.30
2018-09-09T18:03:33.105Z,52.21
2018-09-09T18:06:01.761Z,52.19
2018-09-09T18:08:30.350Z,52.85
2018-09-09T18:10:58.998Z,53.62
2018-09-09T18:13:27.625Z,54.10
2018-09-09T18:15:56.306Z,53.18
2018-09-09T18:18:24.986Z,53.03
2018-09-09T18:20:53.767Z,52.83
2018-09-09T18:23:22.471Z,53.81
2018-09-09T18:25:51.287Z,52.90
2018-09-09T18:28:19.926Z,53.91
2018-09-09T18:30:48.523Z,54.01
2018-09-09T18:33:17.421Z,55.81
2018-09-09T18:35:46.847Z,57.76
2018-09-09T18:38:15.550Z,57.77
2018-09-09T18:40:44.538Z,58.16
2018-09-09T18:43:13.305Z,59.36
2018-09-09T18:45:41.957Z,60.07
2018-09-09T18:48:10.744Z,60.00
2018-09-09T18:50:39.396Z,61.38
2018-09-09T18:53:08.597Z,60.58
2018-09-09T18:55:37.198Z,61.00
2018-09-09T18:58:05.867Z,60.71
2018-09-09T19:00:34.463Z,61.29
2018-09-09T19:03:03.115Z,60.93
2018-09-09T19:05:32.021Z,61.05
2018-09-09T19:08:00.654Z,61.05
2018-09-09T19:10:29.434Z,61.49
2018-09-09T19:12:58.091Z,61.04
2018-09-09T19:15:26.775Z,61.77
2018-09-09T19:17:55.526Z,61.71
2018-09-09T19:20:24.146Z,62.12
2018-09-09T19:22:52.758Z,62.83
2018-09-09T19:25:21.400Z,63.49
2018-09-09T19:27:50.059Z,63.55
2018-09-09T19:30:18.798Z,63.93
2018-09-09T19:32:48.323Z,63.82
2018-09-09T19:35:16.926Z,64.71
2018-09-09T19:37:46.339Z,64.55
2018-09-09T19:40:14.987Z,65.19
2018-09-09T19:42:43.675Z,65.38
2018-09-09T19:45:12.364Z,65.32
2018-09-09T19:47:41.033Z,65.47
2018-09-09T19:50:09.667Z,65.16
2018-09-09T19:52:38.352Z,65.68
2018-09-09T19:55:07.094Z,65.50
2018-09-09T19:57:38.097Z,65.80
2018-09-09T20:00:06.853Z,66.50
2018-09-09T20:02:35.513Z,66.16
2018-09-09T20:05:04.181Z,66.90
2018-09-09T20:07:32.854Z,66.48
2018-09-09T20:10:01.661Z,66.51
2018-09-09T20:12:30.303Z,66.89
2018-09-09T20:14:58.982Z,66.67
2018-09-09T20:17:27.681Z,66.79
2018-09-09T20:19:56.311Z,67.43
2018-09-09T20:22:24.978Z,67.29
2018-09-09T20:24:53.612Z,67.67
2018-09-09T20:27:22.891Z,67.55
2018-09-09T20:29:51.454Z,67.44
2018-09-09T20:32:20.103Z,67.24
2018-09-09T20:34:48.741Z,67.56
2018-09-09T20:37:17.461Z,67.86
2018-09-09T20:39:46.166Z,68.01
2018-09-09T20:42:14.891Z,68.07
2018-09-09T20:44:43.520Z,67.95
2018-09-09T20:47:12.145Z,67.73
2018-09-09T20:49:40.766Z,67.84
2018-09-09T20:52:09.373Z,67.62
2018-09-09T20:54:37.953Z,68.13
2018-09-09T20:57:06.587Z,68.33
2018-09-09T20:59:35.227Z,68.30
2018-09-09T21:02:04.016Z,68.85
2018-09-09T21:04:32.718Z,68.74
2018-09-09T21:07:01.320Z,69.05
2018-09-09T21:09:30.011Z,68.87
2018-09-09T21:11:58.591Z,69.07
2018-09-09T21:14:27.197Z,69.37
2018-09-09T21:16:55.826Z,69.31
2018-09-09T21:19:24.415Z,69.46
2018-09-09T21:21:53.049Z,69.75
2018-09-09T21:24:21.636Z,69.60
2018-09-09T21:26:50.242Z,69.70
2018-09-09T21:29:18.851Z,69.80
2018-09-09T21:31:47.422Z,70.43
2018-09-09T21:34:16.056Z,69.94
2018-09-09T21:36:44.651Z,70.47
2018-09-09T21:39:13.250Z,71.20
2018-09-09T21:41:42.369Z,71.29
2018-09-09T21:44:11.008Z,71.48
2018-09-09T21:46:39.581Z,71.25
2018-09-09T21:49:08.538Z,71.77
2018-09-09T21:51:37.117Z,71.62
2018-09-09T21:54:06.055Z,71.64
2018-09-09T21:56:34.719Z,71.57
2018-09-09T21:59:03.929Z,71.84
2018-09-09T22:01:37.736Z,71.53
2018-09-09T22:04:06.339Z,71.71
2018-09-09T22:06:34.977Z,71.25
2018-09-09T22:09:04.525Z,71.35
2018-09-09T22:11:33.223Z,71.63
2018-09-09T22:14:01.828Z,71.97
2018-09-09T22:16:30.468Z,72.15
2018-09-09T22:21:32.803Z,72.75
2018-09-09T22:24:01.402Z,72.71
2018-09-09T22:26:30.013Z,72.77
2018-09-09T22:28:58.605Z,73.11
2018-09-09T22:31:27.174Z,73.45
2018-09-09T22:33:55.769Z,73.03
2018-09-09T22:36:24.377Z,73.05
2018-09-09T22:38:53.003Z,73.39
2018-09-09T22:41:21.601Z,73.18
2018-09-09T22:43:50.238Z,74.18
2018-09-09T22:46:18.837Z,74.43
2018-09-09T22:48:47.447Z,74.72
2018-09-09T22:51:16.058Z,74.39
2018-09-09T22:53:44.650Z,74.64
2018-09-09T22:56:13.444Z,74.64
2018-09-09T22:58:42.126Z,74.58
2018-09-09T23:01:10.762Z,75.13
2018-09-09T23:03:39.369Z,75.15
2018-09-09T23:06:08.023Z,75.76
2018-09-09T23:08:36.630Z,75.52
2018-09-09T23:11:05.281Z,76.33
2018-09-09T23:13:33.968Z,76.16
2018-09-09T23:16:02.556Z,76.16
2018-09-09T23:18:31.234Z,76.50
2018-09-09T23:20:59.826Z,77.26
2018-09-09T23:23:28.428Z,77.36
2018-09-09T23:25:57.283Z,77.37
2018-09-09T23:28:25.893Z,78.02
2018-09-09T23:30:54.479Z,78.15
2018-09-09T23:33:23.048Z,78.54
2018-09-09T23:35:51.639Z,78.45
2018-09-09T23:38:20.225Z,78.79
2018-09-09T23:40:49.110Z,79.36
2018-09-09T23:43:17.862Z,79.37
2018-09-09T23:45:46.450Z,79.79
2018-09-09T23:48:15.045Z,80.07
2018-09-09T23:50:43.658Z,80.38
2018-09-09T23:53:12.262Z,81.16
2018-09-09T23:55:40.883Z,80.77
2018-09-09T23:58:09.498Z,81.01
